Time;durP1;ratioP1;P1;durP2;ratioP2;P2;SDS_P1;SDS_P2;PMS_P1;PMS_P2;Temp;Humidity;BMP_temperature;BMP_pressure;BME280_temperature;BME280_humidity;BME280_pressure;Samples;Min_cycle;Max_cycle;Signal;HPM_P1;HPM_P2
2022/06/07 00:02:12;;;;;;;3.23;1.57;;;14.40;86.20;;;;;;5054825;28;20037;-81
2022/06/07 00:04:38;;;;;;;3.28;1.50;;;14.40;86.10;;;;;;5040286;28;20056;-82
2022/06/07 00:07:05;;;;;;;2.72;1.65;;;14.30;85.90;;;;;;5046945;28;20686;-81
2022/06/07 00:09:30;;;;;;;2.08;1.50;;;14.30;85.80;;;;;;5051291;28;20492;-81
2022/06/07 00:11:57;;;;;;;2.30;1.60;;;14.30;86.50;;;;;;5031121;28;20033;-81
2022/06/07 00:14:24;;;;;;;2.00;1.60;;;14.30;85.80;;;;;;5047617;28;20708;-81
2022/06/07 00:16:50;;;;;;;1.75;1.38;;;14.30;85.70;;;;;;5057346;28;20029;-81
2022/06/07 00:19:15;;;;;;;3.30;1.70;;;14.20;85.60;;;;;;5030338;28;20118;-80
2022/06/07 00:21:41;;;;;;;3.30;1.60;;;14.20;85.60;;;;;;5062836;28;20396;-81
2022/06/07 00:24:07;;;;;;;2.60;1.27;;;14.10;85.60;;;;;;5044799;28;20032;-81
2022/06/07 00:26:33;;;;;;;1.85;1.40;;;14.10;85.60;;;;;;5059360;28;20032;-81
2022/06/07 00:29:00;;;;;;;1.92;1.50;;;14.10;85.70;;;;;;5035109;28;20559;-81
2022/06/07 00:31:27;;;;;;;2.30;1.23;;;14.00;85.80;;;;;;5043064;28;20320;-81
2022/06/07 00:33:53;;;;;;;2.13;1.40;;;14.00;85.90;;;;;;5045476;28;20410;-81
2022/06/07 00:36:19;;;;;;;2.47;1.60;;;14.00;86.10;;;;;;5038276;28;20069;-81
2022/06/07 00:38:45;;;;;;;1.50;1.27;;;13.90;86.30;;;;;;5049813;28;20124;-81
2022/06/07 00:41:12;;;;;;;2.03;1.40;;;13.90;86.40;;;;;;5053705;28;20481;-81
2022/06/07 00:43:38;;;;;;;2.53;1.55;;;13.90;86.50;;;;;;5033519;28;20044;-81
2022/06/07 00:46:11;;;;;;;2.20;1.65;;;13.90;86.70;;;;;;5030468;28;20041;-81
2022/06/07 00:48:38;;;;;;;1.70;1.45;;;13.90;86.80;;;;;;5053512;28;20048;-81
2022/06/07 00:51:10;;;;;;;1.50;1.30;;;13.90;86.80;;;;;;5036545;28;20259;-81
2022/06/07 00:53:36;;;;;;;2.40;1.37;;;13.90;86.90;;;;;;5051859;28;20115;-81
2022/06/07 00:56:03;;;;;;;2.42;1.52;;;13.90;86.90;;;;;;5049272;28;20044;-81
2022/06/07 00:58:30;;;;;;;2.05;1.60;;;13.90;86.80;;;;;;5047696;28;20125;-81
2022/06/07 01:00:57;;;;;;;2.38;1.40;;;13.90;86.70;;;;;;5026515;28;20059;-81
2022/06/07 01:03:24;;;;;;;2.25;1.55;;;13.90;86.70;;;;;;5052830;28;20251;-80
2022/06/07 01:05:51;;;;;;;2.00;1.27;;;13.80;86.70;;;;;;5042709;28;20403;-81
2022/06/07 01:11:02;;;;;;;1.67;1.35;;;13.80;86.70;;;;;;5048021;28;20404;-81
2022/06/07 01:13:32;;;;;;;2.58;1.42;;;13.80;86.60;;;;;;5052341;28;20253;-81
2022/06/07 01:16:07;;;;;;;2.10;1.55;;;13.70;86.50;;;;;;5020100;28;20033;-80
2022/06/07 01:18:33;;;;;;;1.80;1.37;;;13.70;86.50;;;;;;5059021;28;20074;-80
2022/06/07 01:21:29;;;;;;;1.85;1.27;;;13.70;86.70;;;;;;5040663;28;20086;-80
2022/06/07 01:23:55;;;;;;;1.70;1.23;;;13.60;87.20;;;;;;5024829;28;20036;-80
2022/06/07 01:26:21;;;;;;;1.60;1.43;;;13.60;86.70;;;;;;5048669;28;20075;-80
2022/06/07 01:28:47;;;;;;;3.38;1.30;;;13.50;86.80;;;;;;5056903;28;20032;-80
2022/06/07 01:31:13;;;;;;;2.28;1.27;;;13.50;87.00;;;;;;5034893;28;20176;-80
2022/06/07 01:33:38;;;;;;;2.53;1.50;;;13.50;87.10;;;;;;5040662;28;20048;-80
2022/06/07 01:36:11;;;;;;;2.08;1.23;;;13.50;87.20;;;;;;5043442;28;20447;-80
2022/06/07 01:38:39;;;;;;;2.23;1.13;;;13.40;87.00;;;;;;5044348;28;20051;-80
2022/06/07 01:43:51;;;;;;;1.60;1.30;;;13.40;87.20;;;;;;5052508;28;20032;-80
2022/06/07 01:46:17;;;;;;;1.20;1.10;;;13.40;87.20;;;;;;5020750;28;20566;-80
2022/06/07 01:48:43;;;;;;;2.30;1.50;;;13.30;87.30;;;;;;5064038;28;20036;-80
2022/06/07 01:51:10;;;;;;;2.80;1.30;;;13.30;87.40;;;;;;5039849;28;20021;-80
2022/06/07 01:53:36;;;;;;;1.88;1.20;;;13.20;87.40;;;;;;5034864;28;20032;-80
2022/06/07 01:56:08;;;;;;;1.38;1.10;;;13.20;87.50;;;;;;5045878;28;20044;-80
2022/06/07 01:58:35;;;;;;;1.50;1.10;;;13.20;87.60;;;;;;5050958;28;20123;-80
2022/06/07 02:01:01;;;;;;;2.35;1.10;;;13.20;87.60;;;;;;5025259;28;20081;-80
2022/06/07 02:03:27;;;;;;;1.47;1.17;;;13.20;87.80;;;;;;5045103;28;20695;-80
2022/06/07 02:05:59;;;;;;;1.70;1.30;;;13.20;87.60;;;;;;5042445;28;20155;-80
2022/06/07 02:08:26;;;;;;;2.38;1.10;;;13.10;87.70;;;;;;5039140;28;20622;-80
2022/06/07 02:10:52;;;;;;;2.50;1.23;;;13.10;87.70;;;;;;5047205;28;20202;-80
2022/06/07 02:13:19;;;;;;;1.70;1.23;;;13.10;87.70;;;;;;5043570;28;20039;-80
2022/06/07 02:15:46;;;;;;;1.63;1.20;;;13.10;87.70;;;;;;5059024;28;20085;-80
2022/06/07 02:18:12;;;;;;;2.08;1.40;;;13.00;87.80;;;;;;5011343;28;20315;-80
2022/06/07 02:20:39;;;;;;;1.67;1.20;;;13.10;88.10;;;;;;5051072;28;20028;-80
2022/06/07 02:23:06;;;;;;;1.83;1.13;;;13.10;88.20;;;;;;5041520;28;20681;-80
2022/06/07 02:25:37;;;;;;;2.13;1.13;;;13.10;88.40;;;;;;5054477;28;20040;-80
2022/06/07 02:28:04;;;;;;;1.93;1.10;;;13.00;88.30;;;;;;5057582;28;20036;-80
2022/06/07 02:30:30;;;;;;;2.17;1.15;;;13.00;88.20;;;;;;5034547;28;20071;-80
2022/06/07 02:32:56;;;;;;;1.52;1.10;;;13.00;88.90;;;;;;5035312;28;20123;-80
2022/06/07 02:35:21;;;;;;;2.50;1.40;;;13.00;88.10;;;;;;5036154;28;20230;-80
2022/06/07 02:37:47;;;;;;;2.17;1.27;;;13.00;88.10;;;;;;5045661;28;20528;-80
2022/06/07 02:40:12;;;;;;;2.60;1.20;;;13.00;88.00;;;;;;5035500;28;20039;-80
2022/06/07 02:42:38;;;;;;;1.92;1.10;;;13.00;88.10;;;;;;5036681;28;20020;-80
2022/06/07 02:45:05;;;;;;;2.30;1.40;;;13.00;88.00;;;;;;5057561;28;20044;-80
2022/06/07 02:47:30;;;;;;;1.60;1.27;;;12.90;87.90;;;;;;5038978;28;20458;-80
2022/06/07 02:49:57;;;;;;;2.13;1.30;;;12.90;87.90;;;;;;5023847;28;20233;-80
2022/06/07 02:52:22;;;;;;;1.60;1.20;;;12.90;87.90;;;;;;5047042;28;20024;-80
2022/06/07 02:54:48;;;;;;;1.73;1.10;;;12.90;87.80;;;;;;5022479;28;20378;-80
2022/06/07 02:57:17;;;;;;;1.30;1.15;;;12.80;87.60;;;;;;5048069;28;20037;-80
2022/06/07 02:59:42;;;;;;;2.17;1.30;;;12.80;87.60;;;;;;5043747;28;20079;-80
2022/06/07 03:02:08;;;;;;;2.00;1.23;;;12.80;87.70;;;;;;5043588;28;20041;-80
2022/06/07 03:04:34;;;;;;;3.37;1.30;;;12.70;87.70;;;;;;5036279;28;20473;-80
2022/06/07 03:07:00;;;;;;;3.15;1.33;;;12.70;87.70;;;;;;5036351;28;20120;-80
2022/06/07 03:09:27;;;;;;;1.67;1.13;;;12.70;87.70;;;;;;5045318;28;20747;-80
2022/06/07 03:11:52;;;;;;;2.17;1.40;;;12.70;87.70;;;;;;5038583;28;20123;-80
2022/06/07 03:14:18;;;;;;;1.90;1.38;;;12.60;87.70;;;;;;5046674;28;20041;-80
2022/06/07 03:16:44;;;;;;;1.80;1.20;;;12.60;87.80;;;;;;5046042;28;20076;-80
2022/06/07 03:19:10;;;;;;;1.90;1.10;;;12.60;87.90;;;;;;5025784;28;20036;-80
2022/06/07 03:21:37;;;;;;;1.85;1.20;;;12.60;88.00;;;;;;5040467;28;20518;-80
2022/06/07 03:24:03;;;;;;;3.07;1.40;;;12.50;88.00;;;;;;5046370;28;20089;-80
2022/06/07 03:26:29;;;;;;;2.92;1.30;;;12.50;88.10;;;;;;5035223;28;20028;-80
2022/06/07 03:28:55;;;;;;;1.73;1.27;;;12.50;88.20;;;;;;5042601;28;20460;-80
2022/06/07 03:31:21;;;;;;;1.77;1.27;;;12.50;88.50;;;;;;5051562;28;20360;-80
2022/06/07 03:33:47;;;;;;;2.30;1.30;;;12.50;88.50;;;;;;5037491;28;20037;-80
2022/06/07 03:36:24;;;;;;;1.67;1.20;;;12.40;88.70;;;;;;5029316;28;20060;-80
2022/06/07 03:38:50;;;;;;;2.78;1.40;;;12.50;89.00;;;;;;5043326;28;20056;-80
2022/06/07 03:41:21;;;;;;;2.28;1.25;;;12.50;89.20;;;;;;5039114;28;20663;-80
2022/06/07 03:43:47;;;;;;;1.80;1.30;;;12.50;89.40;;;;;;5048671;28;20333;-80
2022/06/07 03:46:17;;;;;;;2.58;1.25;;;12.50;89.70;;;;;;5034671;28;20609;-80
2022/06/07 03:48:44;;;;;;;3.93;1.33;;;12.50;89.90;;;;;;5059936;28;20451;-80
2022/06/07 03:51:12;;;;;;;2.65;1.15;;;12.60;90.00;;;;;;5031802;28;20393;-80
2022/06/07 03:53:39;;;;;;;2.25;1.40;;;12.60;90.10;;;;;;5051551;28;20036;-80
2022/06/07 03:56:05;;;;;;;2.10;1.30;;;12.60;90.20;;;;;;5052305;28;20037;-80
2022/06/07 03:58:31;;;;;;;2.35;1.20;;;12.60;90.20;;;;;;5049409;28;20033;-80
2022/06/07 04:00:59;;;;;;;2.03;1.50;;;12.70;90.30;;;;;;5040197;28;20047;-80
2022/06/07 04:03:26;;;;;;;1.83;1.48;;;12.70;90.30;;;;;;5047587;28;20321;-80
2022/06/07 04:05:53;;;;;;;2.75;1.40;;;12.70;90.40;;;;;;5033786;28;20398;-80
2022/06/07 04:08:19;;;;;;;2.55;1.20;;;12.80;90.40;;;;;;5049994;28;20497;-80
2022/06/07 04:10:54;;;;;;;2.25;1.40;;;12.80;90.50;;;;;;5034881;28;20041;-80
2022/06/07 04:13:23;;;;;;;2.73;1.30;;;12.80;90.50;;;;;;5050490;28;20269;-80
2022/06/07 04:15:48;;;;;;;2.80;1.20;;;12.90;90.70;;;;;;5054162;28;20035;-79
2022/06/07 04:18:15;;;;;;;2.17;1.27;;;13.00;90.80;;;;;;5031905;28;20033;-80
2022/06/07 04:20:40;;;;;;;1.90;1.20;;;13.00;90.90;;;;;;5051377;28;20098;-80
2022/06/07 04:23:07;;;;;;;1.52;1.10;;;13.10;91.00;;;;;;5022366;28;20036;-80
2022/06/07 04:25:35;;;;;;;2.20;1.33;;;13.20;91.10;;;;;;5056821;28;20124;-80
2022/06/07 04:28:01;;;;;;;3.60;1.40;;;13.20;91.10;;;;;;5050583;28;20566;-80
2022/06/07 04:30:27;;;;;;;1.40;1.20;;;13.30;91.30;;;;;;5039452;28;20262;-80
2022/06/07 04:32:53;;;;;;;1.83;1.30;;;13.40;91.30;;;;;;5045835;28;20048;-80
2022/06/07 04:35:19;;;;;;;2.47;1.20;;;13.50;91.40;;;;;;5048948;28;20229;-79
2022/06/07 04:37:45;;;;;;;2.47;1.10;;;13.60;91.50;;;;;;5041507;28;20105;-80
2022/06/07 04:40:12;;;;;;;2.20;1.35;;;13.70;91.50;;;;;;5044221;28;20036;-80
2022/06/07 04:42:38;;;;;;;2.97;1.35;;;13.80;91.50;;;;;;5039753;28;20041;-80
2022/06/07 04:45:06;;;;;;;1.63;1.10;;;13.90;91.60;;;;;;5033926;28;20044;-80
2022/06/07 04:47:32;;;;;;;3.83;1.40;;;13.90;91.60;;;;;;5054288;28;20029;-80
2022/06/07 04:49:58;;;;;;;3.05;1.35;;;14.00;91.70;;;;;;5049368;28;20045;-80
2022/06/07 04:52:24;;;;;;;1.57;1.33;;;14.20;92.10;;;;;;5028911;28;20332;-80
2022/06/07 04:54:49;;;;;;;1.52;1.30;;;14.20;91.70;;;;;;5048522;28;20135;-79
2022/06/07 04:57:15;;;;;;;1.80;1.40;;;14.30;91.60;;;;;;5047781;28;20245;-80
2022/06/07 04:59:41;;;;;;;1.67;1.20;;;14.40;91.90;;;;;;5028796;28;20037;-80
2022/06/07 05:02:06;;;;;;;2.37;1.33;;;14.40;91.40;;;;;;5042738;28;20147;-80
2022/06/07 05:04:32;;;;;;;2.38;1.50;;;14.50;91.30;;;;;;5023916;28;20029;-79
2022/06/07 05:06:58;;;;;;;2.30;1.30;;;14.50;91.30;;;;;;5026753;28;20762;-79
2022/06/07 05:09:24;;;;;;;1.70;1.20;;;14.60;91.40;;;;;;5035331;28;20057;-80
2022/06/07 05:11:52;;;;;;;1.93;1.30;;;14.60;91.40;;;;;;5046093;28;20295;-80
2022/06/07 05:14:21;;;;;;;2.78;1.50;;;14.70;91.50;;;;;;5050933;28;20519;-79
2022/06/07 05:16:48;;;;;;;2.92;1.58;;;14.70;91.50;;;;;;5035729;28;20032;-79
2022/06/07 05:19:14;;;;;;;2.65;1.50;;;14.80;91.70;;;;;;5034018;28;20785;-79
2022/06/07 05:21:41;;;;;;;1.70;1.30;;;14.90;91.70;;;;;;5034740;28;20600;-79
2022/06/07 05:24:07;;;;;;;1.53;1.20;;;14.90;91.70;;;;;;5027743;28;20972;-79
2022/06/07 05:26:52;;;;;;;2.22;1.30;;;15.00;91.80;;;;;;5049822;28;20029;-79
2022/06/07 05:29:48;;;;;;;2.15;1.48;;;15.10;92.00;;;;;;5056172;28;20036;-79
2022/06/07 05:32:14;;;;;;;1.60;1.33;;;15.20;92.00;;;;;;5029171;28;20071;-80
2022/06/07 05:34:40;;;;;;;1.77;1.33;;;15.30;92.40;;;;;;5047094;28;20041;-79
2022/06/07 05:37:06;;;;;;;2.63;1.40;;;15.50;92.70;;;;;;5019505;28;20699;-79
2022/06/07 05:39:31;;;;;;;2.65;1.33;;;15.60;92.70;;;;;;5046697;28;20753;-79
2022/06/07 05:41:57;;;;;;;2.40;1.33;;;15.70;92.80;;;;;;5048949;28;20555;-79
2022/06/07 05:44:25;;;;;;;2.30;1.48;;;15.90;92.70;;;;;;5041928;28;20470;-80
2022/06/07 05:46:52;;;;;;;2.72;1.30;;;16.00;92.60;;;;;;5032446;28;20040;-80
2022/06/07 05:49:18;;;;;;;1.88;1.20;;;16.10;92.50;;;;;;5044162;28;20025;-80
2022/06/07 05:51:44;;;;;;;3.25;1.50;;;16.30;92.50;;;;;;5030470;28;20170;-79
2022/06/07 05:54:12;;;;;;;2.37;1.37;;;16.40;92.50;;;;;;5023598;28;20075;-79
2022/06/07 05:56:38;;;;;;;3.92;1.50;;;16.50;92.50;;;;;;5051091;28;20184;-81
2022/06/07 05:59:07;;;;;;;3.63;1.50;;;16.60;92.50;;;;;;5051912;28;20032;-79
2022/06/07 06:01:33;;;;;;;1.98;1.30;;;16.70;92.40;;;;;;5038079;28;20548;-79
2022/06/07 06:03:59;;;;;;;2.33;1.50;;;16.80;92.40;;;;;;5051955;28;20028;-79
2022/06/07 06:06:25;;;;;;;2.27;1.53;;;16.80;92.40;;;;;;5039399;28;20217;-80
2022/06/07 06:11:36;;;;;;;3.03;1.50;;;17.10;92.40;;;;;;5047697;28;20184;-79
2022/06/07 06:14:02;;;;;;;1.80;1.48;;;17.20;92.40;;;;;;5054755;28;20029;-80
2022/06/07 06:16:28;;;;;;;2.53;1.30;;;17.30;92.30;;;;;;5037688;28;20033;-80
2022/06/07 06:18:58;;;;;;;2.38;1.30;;;17.40;92.20;;;;;;5032651;28;20048;-79
2022/06/07 06:21:26;;;;;;;1.83;1.33;;;17.50;91.80;;;;;;5047554;28;20241;-79
2022/06/07 06:23:52;;;;;;;2.43;1.30;;;17.50;91.90;;;;;;5038540;28;20033;-81
2022/06/07 06:26:19;;;;;;;2.83;1.33;;;17.60;91.80;;;;;;5023870;28;20059;-79
2022/06/07 06:28:46;;;;;;;1.67;1.20;;;17.70;91.80;;;;;;5043868;28;20393;-81
2022/06/07 06:31:12;;;;;;;3.28;1.40;;;17.80;91.80;;;;;;5053783;28;20054;-80
2022/06/07 06:33:40;;;;;;;4.80;1.35;;;17.90;91.80;;;;;;5035579;28;20742;-79
2022/06/07 06:36:08;;;;;;;2.57;1.40;;;17.90;91.90;;;;;;5062456;28;20047;-80
2022/06/07 06:38:34;;;;;;;2.08;1.30;;;18.00;91.80;;;;;;5021277;28;20856;-80
2022/06/07 06:41:30;;;;;;;1.70;1.30;;;18.10;91.70;;;;;;5029114;28;20037;-80
2022/06/07 06:43:58;;;;;;;2.88;1.20;;;18.20;91.10;;;;;;5037646;28;20039;-81
2022/06/07 06:46:45;;;;;;;2.78;1.40;;;18.30;91.40;;;;;;5049571;28;20678;-80
2022/06/07 06:49:12;;;;;;;2.90;1.10;;;18.30;90.10;;;;;;5029741;28;20157;-79
2022/06/07 06:51:39;;;;;;;2.22;1.25;;;18.30;91.20;;;;;;5026242;28;20277;-81
2022/06/07 06:54:04;;;;;;;1.45;1.23;;;18.40;91.00;;;;;;5022128;28;20769;-80
2022/06/07 06:56:31;;;;;;;1.67;1.15;;;18.40;91.00;;;;;;5028167;28;20082;-79
2022/06/07 06:58:58;;;;;;;2.33;1.10;;;18.40;90.90;;;;;;5039698;28;20715;-80
2022/06/07 07:01:27;;;;;;;1.50;1.05;;;18.40;90.70;;;;;;5044516;28;20033;-80
2022/06/07 07:03:53;;;;;;;2.08;1.00;;;18.50;90.50;;;;;;5029364;28;20039;-79
2022/06/07 07:06:20;;;;;;;1.50;1.20;;;18.50;90.60;;;;;;5051155;28;20040;-80
2022/06/07 07:08:47;;;;;;;1.48;1.00;;;18.50;90.70;;;;;;5052353;28;20040;-80
2022/06/07 07:11:31;;;;;;;1.30;1.20;;;18.50;90.80;;;;;;5019985;28;20054;-80
2022/06/07 07:13:58;;;;;;;1.63;1.10;;;18.60;89.60;;;;;;5045299;28;20625;-79
2022/06/07 07:16:37;;;;;;;2.58;1.30;;;18.60;90.60;;;;;;5047976;28;20068;-80
2022/06/07 07:19:04;;;;;;;2.03;1.13;;;18.70;89.50;;;;;;5040008;28;20139;-80
2022/06/07 07:21:36;;;;;;;1.80;1.10;;;18.70;90.80;;;;;;5047873;28;20028;-80
2022/06/07 07:24:08;;;;;;;2.40;1.30;;;18.80;90.20;;;;;;5056334;28;20162;-79
2022/06/07 07:26:35;;;;;;;1.25;1.10;;;18.90;90.30;;;;;;5034409;28;20029;-78
2022/06/07 07:29:03;;;;;;;2.30;1.10;;;19.00;90.90;;;;;;5026227;28;20215;-79
2022/06/07 07:31:32;;;;;;;1.55;1.17;;;19.10;91.10;;;;;;5053346;28;20028;-80
2022/06/07 07:33:59;;;;;;;2.58;1.10;;;19.20;90.80;;;;;;5047599;28;20609;-80
2022/06/07 07:36:26;;;;;;;1.77;1.10;;;19.30;91.20;;;;;;5037397;28;20044;-79
2022/06/07 07:38:52;;;;;;;2.20;1.10;;;19.40;91.20;;;;;;5048945;28;20551;-80
2022/06/07 07:41:28;;;;;;;1.25;1.08;;;19.60;91.00;;;;;;5034736;28;20075;-80
2022/06/07 07:43:57;;;;;;;1.70;1.08;;;19.70;90.50;;;;;;5026726;28;20029;-81
2022/06/07 07:46:27;;;;;;;1.20;1.10;;;19.80;90.70;;;;;;5057220;28;20040;-80
2022/06/07 07:48:52;;;;;;;2.07;1.30;;;19.90;90.60;;;;;;5036469;28;20039;-79
2022/06/07 07:51:20;;;;;;;2.03;1.00;;;20.00;90.60;;;;;;5042348;28;20029;-80
2022/06/07 07:53:45;;;;;;;1.40;0.90;;;20.10;90.50;;;;;;5050024;28;20037;-80
2022/06/07 07:56:11;;;;;;;2.33;1.00;;;20.20;90.50;;;;;;5038461;28;20048;-80
2022/06/07 07:58:37;;;;;;;1.30;1.10;;;20.30;90.30;;;;;;5046997;28;20362;-80
2022/06/07 08:01:09;;;;;;;1.75;1.10;;;20.40;90.20;;;;;;5013246;28;20109;-80
2022/06/07 08:03:35;;;;;;;1.40;0.80;;;20.50;88.60;;;;;;5045951;28;20025;-80
2022/06/07 08:06:01;;;;;;;1.25;1.00;;;20.60;90.10;;;;;;5031789;28;20029;-81
2022/06/07 08:08:26;;;;;;;2.65;1.20;;;20.70;90.10;;;;;;5034647;28;20094;-80
2022/06/07 08:10:54;;;;;;;1.73;1.17;;;20.70;90.10;;;;;;5030645;28;20083;-79
2022/06/07 08:13:19;;;;;;;1.38;1.02;;;20.90;90.20;;;;;;5043941;28;20029;-80
2022/06/07 08:15:46;;;;;;;2.33;0.90;;;21.00;90.50;;;;;;5029989;28;21669;-79
2022/06/07 08:18:12;;;;;;;1.23;1.00;;;21.10;90.10;;;;;;5050893;28;20052;-80
2022/06/07 08:20:38;;;;;;;1.00;0.80;;;21.20;89.80;;;;;;5043833;28;20060;-81
2022/06/07 08:23:07;;;;;;;1.83;0.98;;;21.30;89.30;;;;;;5040252;28;20575;-80
2022/06/07 08:25:33;;;;;;;1.75;0.80;;;21.40;87.40;;;;;;5045106;28;20051;-81
2022/06/07 08:28:02;;;;;;;0.93;0.93;;;21.50;88.60;;;;;;5034888;28;20058;-79
2022/06/07 08:30:28;;;;;;;1.73;0.90;;;21.50;88.40;;;;;;5055818;28;20527;-80
2022/06/07 08:32:53;;;;;;;1.17;0.80;;;21.60;88.10;;;;;;5029050;28;20025;-80
2022/06/07 08:38:05;;;;;;;1.35;0.80;;;21.60;87.60;;;;;;5032750;28;20685;-80
2022/06/07 08:40:34;;;;;;;1.53;0.90;;;21.70;87.80;;;;;;5035912;28;20037;-80
2022/06/07 08:43:14;;;;;;;1.65;0.90;;;21.80;87.20;;;;;;5034815;28;20130;-80
2022/06/07 08:45:42;;;;;;;1.67;1.00;;;21.80;86.50;;;;;;5034783;28;20064;-80
2022/06/07 08:48:19;;;;;;;1.40;1.02;;;21.90;87.90;;;;;;5035695;28;20337;-80
2022/06/07 08:50:54;;;;;;;1.08;0.98;;;22.00;87.40;;;;;;5041037;28;20036;-79
2022/06/07 08:53:33;;;;;;;2.13;1.10;;;22.20;89.40;;;;;;5043200;28;20560;-81
2022/06/07 08:56:01;;;;;;;1.42;1.00;;;22.40;87.00;;;;;;5032514;28;20544;-80
2022/06/07 08:58:33;;;;;;;0.98;0.90;;;22.60;89.10;;;;;;5025373;28;20117;-80
2022/06/07 09:01:10;;;;;;;1.17;0.93;;;22.70;88.10;;;;;;5045749;28;20208;-80
2022/06/07 09:04:05;;;;;;;1.15;1.00;;;22.80;87.60;;;;;;5026809;28;21058;-79
2022/06/07 09:06:41;;;;;;;1.00;0.90;;;22.90;84.30;;;;;;5046630;28;20029;-81
2022/06/07 09:09:07;;;;;;;1.80;0.90;;;23.10;85.90;;;;;;5056732;28;20260;-80
2022/06/07 09:14:31;;;;;;;1.45;1.00;;;23.30;85.90;;;;;;5033005;28;20688;-81
2022/06/07 09:16:58;;;;;;;1.10;0.98;;;23.40;87.70;;;;;;5048131;28;20462;-81
2022/06/07 09:19:26;;;;;;;1.67;0.90;;;23.40;87.10;;;;;;5016367;28;20029;-80
2022/06/07 09:21:56;;;;;;;1.88;1.10;;;23.40;85.80;;;;;;5047332;28;20179;-82
2022/06/07 09:24:41;;;;;;;1.63;1.05;;;23.40;85.80;;;;;;5062120;28;20111;-79
2022/06/07 09:27:15;;;;;;;1.80;1.00;;;23.40;81.40;;;;;;5045365;28;20394;-80
2022/06/07 09:29:42;;;;;;;1.23;1.05;;;23.40;84.50;;;;;;5034212;28;20025;-80
2022/06/07 09:32:17;;;;;;;1.73;1.10;;;23.50;85.80;;;;;;5044726;28;20180;-80
2022/06/07 09:34:54;;;;;;;1.88;1.13;;;23.50;82.80;;;;;;5028075;28;20033;-80
2022/06/07 09:37:29;;;;;;;1.63;1.42;;;23.50;82.90;;;;;;5048050;28;20029;-81
2022/06/07 09:40:18;;;;;;;1.95;1.10;;;23.40;83.30;;;;;;5037864;28;20650;-81
2022/06/07 09:42:53;;;;;;;2.05;1.20;;;23.40;82.50;;;;;;5033695;28;20045;-79
2022/06/07 09:45:56;;;;;;;2.20;1.20;;;23.30;81.40;;;;;;5038668;28;20085;-79
2022/06/07 09:48:27;;;;;;;1.30;1.00;;;23.20;79.40;;;;;;5045309;28;20044;-80
2022/06/07 09:51:06;;;;;;;1.13;0.85;;;23.10;82.70;;;;;;5021668;28;20045;-81
2022/06/07 09:53:42;;;;;;;2.42;1.02;;;23.10;82.00;;;;;;5043507;28;20118;-81
2022/06/07 09:56:45;;;;;;;1.42;1.10;;;23.00;81.80;;;;;;5051119;28;20516;-80
2022/06/07 09:59:25;;;;;;;2.57;1.00;;;23.00;82.30;;;;;;5029615;28;20064;-79
2022/06/07 10:01:59;;;;;;;1.30;1.05;;;23.00;84.20;;;;;;5044802;28;20326;-80
2022/06/07 10:05:04;;;;;;;1.98;1.30;;;23.00;82.70;;;;;;5047696;28;20078;-80
2022/06/07 10:07:34;;;;;;;2.78;1.40;;;23.00;80.40;;;;;;5047416;28;20143;-80
2022/06/07 10:10:21;;;;;;;2.15;1.50;;;23.00;83.60;;;;;;5050404;28;20174;-80
2022/06/07 10:13:03;;;;;;;2.83;1.30;;;22.90;83.00;;;;;;5024985;28;20493;-80
2022/06/07 10:15:38;;;;;;;3.28;1.50;;;22.90;81.50;;;;;;5030629;28;20125;-80
2022/06/07 10:18:03;;;;;;;1.92;1.40;;;22.90;81.80;;;;;;5044565;28;20465;-80
2022/06/07 10:21:08;;;;;;;2.17;1.38;;;22.90;83.50;;;;;;5037694;28;20246;-80
2022/06/07 10:23:51;;;;;;;1.50;1.07;;;22.90;81.00;;;;;;5056542;28;20040;-80
2022/06/07 10:26:32;;;;;;;1.80;1.30;;;22.90;82.30;;;;;;5047460;28;20111;-81
2022/06/07 10:29:25;;;;;;;4.00;1.20;;;22.90;82.00;;;;;;5030769;28;20403;-80
2022/06/07 10:32:06;;;;;;;2.05;1.52;;;22.90;81.80;;;;;;5030838;28;20037;-80
2022/06/07 10:34:55;;;;;;;2.83;1.50;;;22.80;81.30;;;;;;5046015;28;20090;-81
2022/06/07 10:37:49;;;;;;;1.73;1.37;;;22.60;80.90;;;;;;5025582;28;20517;-80
2022/06/07 10:40:15;;;;;;;2.70;1.45;;;22.50;80.00;;;;;;5056224;28;20053;-80
2022/06/07 10:42:50;;;;;;;2.93;1.53;;;22.30;82.10;;;;;;5040824;28;20091;-80
2022/06/07 10:45:37;;;;;;;2.50;1.40;;;22.20;82.00;;;;;;5034597;28;20458;-81
2022/06/07 10:48:29;;;;;;;3.08;1.70;;;22.00;82.80;;;;;;5031590;28;20564;-79
2022/06/07 10:54:10;;;;;;;2.35;1.60;;;21.70;81.50;;;;;;5030234;28;20306;-81
2022/06/07 10:56:42;;;;;;;3.60;1.60;;;21.50;82.50;;;;;;5044916;28;20033;-80
2022/06/07 10:59:23;;;;;;;2.60;1.40;;;21.40;82.30;;;;;;5025797;28;20721;-81
2022/06/07 11:02:16;;;;;;;2.97;1.60;;;21.20;82.70;;;;;;5027406;28;20125;-80
2022/06/07 11:10:32;;;;;;;3.47;1.87;;;21.00;84.70;;;;;;5059914;28;20041;-81
2022/06/07 11:13:16;;;;;;;3.55;1.83;;;21.00;85.90;;;;;;5038213;28;20265;-81
2022/06/07 11:16:00;;;;;;;3.35;1.92;;;21.00;83.90;;;;;;5026190;28;20063;-81
2022/06/07 11:18:27;;;;;;;3.97;2.28;;;21.00;84.50;;;;;;5041169;28;20053;-81
2022/06/07 11:21:02;;;;;;;3.53;2.58;;;21.00;86.10;;;;;;5040710;28;20511;-81
2022/06/07 11:23:39;;;;;;;4.47;2.60;;;21.00;85.70;;;;;;5033072;28;20107;-81
2022/06/07 11:26:14;;;;;;;3.38;2.45;;;21.10;85.50;;;;;;5043210;28;20162;-81
2022/06/07 11:28:39;;;;;;;4.30;2.90;;;21.10;86.00;;;;;;5030461;28;20025;-82
2022/06/07 11:31:25;;;;;;;4.20;2.97;;;21.10;87.10;;;;;;5028752;28;20075;-82
2022/06/07 11:33:50;;;;;;;4.30;2.85;;;21.20;85.90;;;;;;5028512;28;20029;-81
2022/06/07 11:36:25;;;;;;;4.25;2.90;;;21.20;86.90;;;;;;5042149;28;20040;-82
2022/06/07 11:38:54;;;;;;;4.20;2.70;;;21.20;85.90;;;;;;5023571;28;20146;-81
2022/06/07 11:41:37;;;;;;;5.68;2.83;;;21.20;86.50;;;;;;5042416;28;20056;-80
2022/06/07 11:44:28;;;;;;;3.63;2.20;;;21.20;86.30;;;;;;5041832;28;20525;-82
2022/06/07 11:47:18;;;;;;;3.40;2.05;;;21.20;85.20;;;;;;5005922;28;20124;-81
2022/06/07 11:49:50;;;;;;;3.38;1.90;;;21.30;86.70;;;;;;5032223;28;20064;-81
2022/06/07 11:52:17;;;;;;;3.13;2.10;;;21.20;85.50;;;;;;5047877;28;20028;-81
2022/06/07 11:54:45;;;;;;;3.30;2.00;;;21.20;86.50;;;;;;5027186;28;20029;-83
2022/06/07 11:57:30;;;;;;;2.78;1.80;;;21.20;86.60;;;;;;5052782;28;20078;-82
2022/06/07 12:00:16;;;;;;;4.05;2.15;;;21.10;85.40;;;;;;5045101;28;20064;-82
2022/06/07 12:03:08;;;;;;;2.85;1.90;;;21.10;86.00;;;;;;5014323;28;20119;-82
2022/06/07 12:05:54;;;;;;;3.93;2.17;;;21.10;87.30;;;;;;5046524;28;20028;-82
2022/06/07 12:08:32;;;;;;;3.00;1.92;;;21.10;86.60;;;;;;5047580;28;20043;-81
2022/06/07 12:11:20;;;;;;;2.95;1.98;;;21.10;87.30;;;;;;5028335;28;20029;-82
2022/06/07 12:13:56;;;;;;;3.47;2.20;;;21.10;87.10;;;;;;5051430;28;20499;-82
2022/06/07 12:16:32;;;;;;;3.00;2.10;;;21.20;88.70;;;;;;5036548;28;20036;-82
2022/06/07 12:19:00;;;;;;;3.17;1.80;;;21.30;88.20;;;;;;5032264;28;20130;-82
2022/06/07 12:21:27;;;;;;;3.80;2.20;;;21.30;88.90;;;;;;5053354;28;20182;-81
2022/06/07 12:24:14;;;;;;;2.85;2.10;;;21.40;88.80;;;;;;5040017;28;20025;-83
2022/06/07 12:26:40;;;;;;;3.08;1.80;;;21.50;86.40;;;;;;5028056;28;20606;-82
2022/06/07 12:29:23;;;;;;;2.63;1.80;;;21.50;87.40;;;;;;5041817;28;20029;-82
2022/06/07 12:31:55;;;;;;;2.50;1.77;;;21.50;85.80;;;;;;5044527;28;20086;-82
2022/06/07 12:34:28;;;;;;;2.90;1.98;;;21.40;86.20;;;;;;5033048;28;20032;-82
2022/06/07 12:37:00;;;;;;;2.78;1.90;;;21.40;87.20;;;;;;5047529;28;20336;-82
2022/06/07 12:39:27;;;;;;;2.78;1.83;;;21.40;86.80;;;;;;5038879;28;20506;-81
2022/06/07 12:42:06;;;;;;;2.97;1.93;;;21.40;87.40;;;;;;5017903;28;20106;-82
2022/06/07 12:44:41;;;;;;;2.92;1.60;;;21.40;86.50;;;;;;5048512;28;20035;-81
2022/06/07 12:47:27;;;;;;;3.42;1.95;;;21.30;86.90;;;;;;5040507;28;20487;-81
2022/06/07 12:49:54;;;;;;;3.53;1.80;;;21.30;86.80;;;;;;5030041;28;20048;-83
2022/06/07 12:52:29;;;;;;;3.47;1.88;;;21.30;87.10;;;;;;5054581;28;20436;-83
2022/06/07 12:55:11;;;;;;;3.80;1.97;;;21.20;86.30;;;;;;5056980;28;20048;-81
2022/06/07 12:57:48;;;;;;;3.38;1.65;;;21.20;87.10;;;;;;5024818;28;20443;-82
2022/06/07 13:00:21;;;;;;;2.80;1.60;;;21.20;86.80;;;;;;5045149;28;20040;-82
2022/06/07 13:02:52;;;;;;;2.40;1.60;;;21.20;88.00;;;;;;5033450;28;20265;-82
2022/06/07 13:05:33;;;;;;;3.38;1.63;;;21.20;88.30;;;;;;5029997;28;20024;-82
2022/06/07 13:08:00;;;;;;;2.43;1.60;;;21.20;87.70;;;;;;5052959;28;20331;-82
2022/06/07 13:10:36;;;;;;;2.60;1.70;;;21.30;89.00;;;;;;5050365;28;20040;-81
2022/06/07 13:13:08;;;;;;;2.28;1.60;;;21.40;88.30;;;;;;5018981;28;20045;-82
2022/06/07 13:15:37;;;;;;;2.47;1.70;;;21.40;89.20;;;;;;5034458;28;20124;-82
2022/06/07 13:18:04;;;;;;;3.08;2.03;;;21.50;89.70;;;;;;5054969;28;20043;-82
2022/06/07 13:20:42;;;;;;;3.43;2.10;;;21.70;90.30;;;;;;5029461;28;20454;-81
2022/06/07 13:23:17;;;;;;;4.07;2.20;;;21.90;90.00;;;;;;5056935;28;20090;-82
2022/06/07 13:25:43;;;;;;;3.30;2.05;;;22.10;90.10;;;;;;5052420;28;20060;-81
2022/06/07 13:28:18;;;;;;;2.90;1.95;;;22.40;91.00;;;;;;5017207;28;20305;-83
2022/06/07 13:30:46;;;;;;;2.83;2.13;;;22.60;89.10;;;;;;5035365;28;20406;-82